sensor_id;sensor_type;location;lat;lon;timestamp;P1;durP1;ratioP1;P2;durP2;ratioP2
21258;SDS011;10787;53.364;-1.480;2023-02-15T00:01:25;64.70;;;36.47;;
21258;SDS011;10787;53.364;-1.480;2023-02-15T00:03:51;67.70;;;36.47;;
21258;SDS011;10787;53.364;-1.480;2023-02-15T00:06:17;71.57;;;37.57;;
21258;SDS011;10787;53.364;-1.480;2023-02-15T00:08:43;66.93;;;37.10;;
21258;SDS011;10787;53.364;-1.480;2023-02-15T00:11:10;68.10;;;37.43;;
21258;SDS011;10787;53.364;-1.480;2023-02-15T00:13:37;67.97;;;37.43;;
21258;SDS011;10787;53.364;-1.480;2023-02-15T00:16:06;66.20;;;38.47;;
21258;SDS011;10787;53.364;-1.480;2023-02-15T00:18:34;66.97;;;37.30;;
21258;SDS011;10787;53.364;-1.480;2023-02-15T00:21:10;69.27;;;38.00;;
21258;SDS011;10787;53.364;-1.480;2023-02-15T00:23:36;67.53;;;37.90;;
21258;SDS011;10787;53.364;-1.480;2023-02-15T00:26:11;69.90;;;37.10;;
21258;SDS011;10787;53.364;-1.480;2023-02-15T00:28:38;74.87;;;38.90;;
21258;SDS011;10787;53.364;-1.480;2023-02-15T00:31:10;70.60;;;38.20;;
21258;SDS011;10787;53.364;-1.480;2023-02-15T00:33:37;71.57;;;38.23;;
21258;SDS011;10787;53.364;-1.480;2023-02-15T00:36:04;71.70;;;39.00;;
21258;SDS011;10787;53.364;-1.480;2023-02-15T00:38:32;68.13;;;39.27;;
21258;SDS011;10787;53.364;-1.480;2023-02-15T00:40:59;70.90;;;38.97;;
21258;SDS011;10787;53.364;-1.480;2023-02-15T00:43:26;70.20;;;39.23;;
21258;SDS011;10787;53.364;-1.480;2023-02-15T00:45:52;68.33;;;37.90;;
21258;SDS011;10787;53.364;-1.480;2023-02-15T00:48:18;68.17;;;37.30;;
21258;SDS011;10787;53.364;-1.480;2023-02-15T00:50:45;67.43;;;36.87;;
21258;SDS011;10787;53.364;-1.480;2023-02-15T00:53:12;65.67;;;36.33;;
21258;SDS011;10787;53.364;-1.480;2023-02-15T00:55:38;65.67;;;35.77;;
21258;SDS011;10787;53.364;-1.480;2023-02-15T00:58:05;62.20;;;34.80;;
21258;SDS011;10787;53.364;-1.480;2023-02-15T01:00:32;62.33;;;34.53;;
21258;SDS011;10787;53.364;-1.480;2023-02-15T01:02:58;63.97;;;34.63;;
21258;SDS011;10787;53.364;-1.480;2023-02-15T01:05:23;63.10;;;35.00;;
21258;SDS011;10787;53.364;-1.480;2023-02-15T01:07:49;66.00;;;34.37;;
21258;SDS011;10787;53.364;-1.480;2023-02-15T01:10:15;62.57;;;34.37;;
21258;SDS011;10787;53.364;-1.480;2023-02-15T01:12:41;60.73;;;34.30;;
21258;SDS011;10787;53.364;-1.480;2023-02-15T01:15:07;62.63;;;34.03;;
21258;SDS011;10787;53.364;-1.480;2023-02-15T01:17:33;60.10;;;34.17;;
21258;SDS011;10787;53.364;-1.480;2023-02-15T01:19:58;61.73;;;33.73;;
21258;SDS011;10787;53.364;-1.480;2023-02-15T01:22:24;62.70;;;33.70;;
21258;SDS011;10787;53.364;-1.480;2023-02-15T01:24:50;60.30;;;33.43;;
21258;SDS011;10787;53.364;-1.480;2023-02-15T01:27:16;62.13;;;33.17;;
21258;SDS011;10787;53.364;-1.480;2023-02-15T01:29:42;59.30;;;33.47;;
21258;SDS011;10787;53.364;-1.480;2023-02-15T01:32:08;60.10;;;32.07;;
21258;SDS011;10787;53.364;-1.480;2023-02-15T01:34:33;60.37;;;33.13;;
21258;SDS011;10787;53.364;-1.480;2023-02-15T01:36:59;55.93;;;32.37;;
21258;SDS011;10787;53.364;-1.480;2023-02-15T01:39:25;60.03;;;33.17;;
21258;SDS011;10787;53.364;-1.480;2023-02-15T01:41:51;54.87;;;31.70;;
21258;SDS011;10787;53.364;-1.480;2023-02-15T01:45:00;61.57;;;32.73;;
21258;SDS011;10787;53.364;-1.480;2023-02-15T01:47:16;61.00;;;33.47;;
21258;SDS011;10787;53.364;-1.480;2023-02-15T01:50:03;60.23;;;33.13;;
21258;SDS011;10787;53.364;-1.480;2023-02-15T01:52:52;60.57;;;32.70;;
21258;SDS011;10787;53.364;-1.480;2023-02-15T01:55:41;61.93;;;32.67;;
21258;SDS011;10787;53.364;-1.480;2023-02-15T01:58:12;61.47;;;32.20;;
21258;SDS011;10787;53.364;-1.480;2023-02-15T02:00:39;57.93;;;31.83;;
21258;SDS011;10787;53.364;-1.480;2023-02-15T02:03:06;57.43;;;32.47;;
21258;SDS011;10787;53.364;-1.480;2023-02-15T02:05:32;65.43;;;33.40;;
21258;SDS011;10787;53.364;-1.480;2023-02-15T02:07:58;59.00;;;31.80;;
21258;SDS011;10787;53.364;-1.480;2023-02-15T02:10:26;61.00;;;33.37;;
21258;SDS011;10787;53.364;-1.480;2023-02-15T02:12:54;56.93;;;31.37;;
21258;SDS011;10787;53.364;-1.480;2023-02-15T02:15:33;61.40;;;33.23;;
21258;SDS011;10787;53.364;-1.480;2023-02-15T02:18:12;58.47;;;31.73;;
21258;SDS011;10787;53.364;-1.480;2023-02-15T02:24:14;58.23;;;31.17;;
21258;SDS011;10787;53.364;-1.480;2023-02-15T02:33:03;56.90;;;30.87;;
21258;SDS011;10787;53.364;-1.480;2023-02-15T02:35:37;58.93;;;31.50;;
21258;SDS011;10787;53.364;-1.480;2023-02-15T02:38:32;67.57;;;33.20;;
21258;SDS011;10787;53.364;-1.480;2023-02-15T02:44:26;61.70;;;31.00;;
21258;SDS011;10787;53.364;-1.480;2023-02-15T02:47:10;63.53;;;32.43;;
21258;SDS011;10787;53.364;-1.480;2023-02-15T02:50:07;62.80;;;32.07;;
21258;SDS011;10787;53.364;-1.480;2023-02-15T02:52:44;59.97;;;33.63;;
21258;SDS011;10787;53.364;-1.480;2023-02-15T02:55:12;59.50;;;32.27;;
21258;SDS011;10787;53.364;-1.480;2023-02-15T02:57:47;60.20;;;33.10;;
21258;SDS011;10787;53.364;-1.480;2023-02-15T03:00:18;61.60;;;32.37;;
21258;SDS011;10787;53.364;-1.480;2023-02-15T03:02:45;61.20;;;31.70;;
21258;SDS011;10787;53.364;-1.480;2023-02-15T03:05:18;62.37;;;32.23;;
21258;SDS011;10787;53.364;-1.480;2023-02-15T03:07:50;63.93;;;33.97;;
21258;SDS011;10787;53.364;-1.480;2023-02-15T03:10:18;62.20;;;32.70;;
21258;SDS011;10787;53.364;-1.480;2023-02-15T03:12:47;59.20;;;32.10;;
21258;SDS011;10787;53.364;-1.480;2023-02-15T03:15:20;62.37;;;33.43;;
21258;SDS011;10787;53.364;-1.480;2023-02-15T03:17:53;64.40;;;33.23;;
21258;SDS011;10787;53.364;-1.480;2023-02-15T03:20:29;61.63;;;33.40;;
21258;SDS011;10787;53.364;-1.480;2023-02-15T03:23:06;64.53;;;34.63;;
21258;SDS011;10787;53.364;-1.480;2023-02-15T03:25:41;66.50;;;33.60;;
21258;SDS011;10787;53.364;-1.480;2023-02-15T03:28:22;61.80;;;34.00;;
21258;SDS011;10787;53.364;-1.480;2023-02-15T03:31:01;64.23;;;33.37;;
21258;SDS011;10787;53.364;-1.480;2023-02-15T03:33:29;66.73;;;34.23;;
21258;SDS011;10787;53.364;-1.480;2023-02-15T03:36:08;60.37;;;33.50;;
21258;SDS011;10787;53.364;-1.480;2023-02-15T03:44:45;64.73;;;33.33;;
21258;SDS011;10787;53.364;-1.480;2023-02-15T03:47:20;64.13;;;34.07;;
21258;SDS011;10787;53.364;-1.480;2023-02-15T03:52:27;63.23;;;33.83;;
21258;SDS011;10787;53.364;-1.480;2023-02-15T03:54:54;69.60;;;35.00;;
21258;SDS011;10787;53.364;-1.480;2023-02-15T03:57:30;66.43;;;35.13;;
21258;SDS011;10787;53.364;-1.480;2023-02-15T04:00:18;70.73;;;35.07;;
21258;SDS011;10787;53.364;-1.480;2023-02-15T04:05:38;67.13;;;35.00;;
21258;SDS011;10787;53.364;-1.480;2023-02-15T04:08:04;67.70;;;35.60;;
21258;SDS011;10787;53.364;-1.480;2023-02-15T04:10:30;64.80;;;34.90;;
21258;SDS011;10787;53.364;-1.480;2023-02-15T04:13:14;62.27;;;34.30;;
21258;SDS011;10787;53.364;-1.480;2023-02-15T04:15:40;64.23;;;35.23;;
21258;SDS011;10787;53.364;-1.480;2023-02-15T04:18:24;66.97;;;34.63;;
21258;SDS011;10787;53.364;-1.480;2023-02-15T04:21:08;68.20;;;34.43;;
21258;SDS011;10787;53.364;-1.480;2023-02-15T04:23:53;62.87;;;34.77;;
21258;SDS011;10787;53.364;-1.480;2023-02-15T04:26:37;66.23;;;34.70;;
21258;SDS011;10787;53.364;-1.480;2023-02-15T04:29:03;66.93;;;35.50;;
21258;SDS011;10787;53.364;-1.480;2023-02-15T04:31:29;67.47;;;35.23;;
21258;SDS011;10787;53.364;-1.480;2023-02-15T04:33:54;67.00;;;34.63;;
21258;SDS011;10787;53.364;-1.480;2023-02-15T04:36:20;70.60;;;37.07;;
21258;SDS011;10787;53.364;-1.480;2023-02-15T04:38:46;70.57;;;35.77;;
21258;SDS011;10787;53.364;-1.480;2023-02-15T04:41:12;70.77;;;36.23;;
21258;SDS011;10787;53.364;-1.480;2023-02-15T04:43:38;70.70;;;36.50;;
21258;SDS011;10787;53.364;-1.480;2023-02-15T04:46:04;66.83;;;36.10;;
21258;SDS011;10787;53.364;-1.480;2023-02-15T04:48:30;68.60;;;36.97;;
21258;SDS011;10787;53.364;-1.480;2023-02-15T04:50:55;72.97;;;38.37;;
21258;SDS011;10787;53.364;-1.480;2023-02-15T04:53:21;72.57;;;38.83;;
21258;SDS011;10787;53.364;-1.480;2023-02-15T04:55:47;70.70;;;38.00;;
21258;SDS011;10787;53.364;-1.480;2023-02-15T04:58:12;70.60;;;37.67;;
21258;SDS011;10787;53.364;-1.480;2023-02-15T05:00:38;69.23;;;36.00;;
21258;SDS011;10787;53.364;-1.480;2023-02-15T05:03:04;71.73;;;37.33;;
21258;SDS011;10787;53.364;-1.480;2023-02-15T05:05:30;70.20;;;36.67;;
21258;SDS011;10787;53.364;-1.480;2023-02-15T05:07:56;71.03;;;37.47;;
21258;SDS011;10787;53.364;-1.480;2023-02-15T05:10:21;74.90;;;37.63;;
21258;SDS011;10787;53.364;-1.480;2023-02-15T05:12:47;71.43;;;37.63;;
21258;SDS011;10787;53.364;-1.480;2023-02-15T05:15:13;67.90;;;36.57;;
21258;SDS011;10787;53.364;-1.480;2023-02-15T05:17:39;66.40;;;35.37;;
21258;SDS011;10787;53.364;-1.480;2023-02-15T05:20:05;67.60;;;36.10;;
21258;SDS011;10787;53.364;-1.480;2023-02-15T05:22:31;61.80;;;33.37;;
21258;SDS011;10787;53.364;-1.480;2023-02-15T05:24:57;62.27;;;33.57;;
21258;SDS011;10787;53.364;-1.480;2023-02-15T05:27:41;66.50;;;35.93;;
21258;SDS011;10787;53.364;-1.480;2023-02-15T05:30:26;65.30;;;36.83;;
21258;SDS011;10787;53.364;-1.480;2023-02-15T05:32:51;72.67;;;36.43;;
21258;SDS011;10787;53.364;-1.480;2023-02-15T05:35:17;68.13;;;36.73;;
21258;SDS011;10787;53.364;-1.480;2023-02-15T05:37:43;69.40;;;36.27;;
21258;SDS011;10787;53.364;-1.480;2023-02-15T05:40:09;71.10;;;37.90;;
21258;SDS011;10787;53.364;-1.480;2023-02-15T05:42:35;68.30;;;37.03;;
21258;SDS011;10787;53.364;-1.480;2023-02-15T05:45:00;65.17;;;35.37;;
21258;SDS011;10787;53.364;-1.480;2023-02-15T05:47:28;64.77;;;34.60;;
21258;SDS011;10787;53.364;-1.480;2023-02-15T05:49:54;67.90;;;35.37;;
21258;SDS011;10787;53.364;-1.480;2023-02-15T05:52:20;64.60;;;35.20;;
21258;SDS011;10787;53.364;-1.480;2023-02-15T05:54:46;63.20;;;34.23;;
21258;SDS011;10787;53.364;-1.480;2023-02-15T05:57:12;65.80;;;34.80;;
21258;SDS011;10787;53.364;-1.480;2023-02-15T05:59:37;65.53;;;34.47;;
21258;SDS011;10787;53.364;-1.480;2023-02-15T06:02:03;61.70;;;33.87;;
21258;SDS011;10787;53.364;-1.480;2023-02-15T06:04:31;64.23;;;34.33;;
21258;SDS011;10787;53.364;-1.480;2023-02-15T06:06:57;65.03;;;34.83;;
21258;SDS011;10787;53.364;-1.480;2023-02-15T06:09:22;61.37;;;33.53;;
21258;SDS011;10787;53.364;-1.480;2023-02-15T06:11:48;65.13;;;33.20;;
21258;SDS011;10787;53.364;-1.480;2023-02-15T06:14:14;61.23;;;32.80;;
21258;SDS011;10787;53.364;-1.480;2023-02-15T06:16:40;66.57;;;34.87;;
21258;SDS011;10787;53.364;-1.480;2023-02-15T06:19:06;65.17;;;34.07;;
21258;SDS011;10787;53.364;-1.480;2023-02-15T06:21:32;62.03;;;34.57;;
21258;SDS011;10787;53.364;-1.480;2023-02-15T06:23:57;60.53;;;33.60;;
21258;SDS011;10787;53.364;-1.480;2023-02-15T06:26:23;63.33;;;33.33;;
21258;SDS011;10787;53.364;-1.480;2023-02-15T06:28:49;61.47;;;33.03;;
21258;SDS011;10787;53.364;-1.480;2023-02-15T06:31:14;62.93;;;32.77;;
21258;SDS011;10787;53.364;-1.480;2023-02-15T06:33:40;64.20;;;33.40;;
21258;SDS011;10787;53.364;-1.480;2023-02-15T06:36:06;68.07;;;33.90;;
21258;SDS011;10787;53.364;-1.480;2023-02-15T06:38:32;65.40;;;33.73;;
21258;SDS011;10787;53.364;-1.480;2023-02-15T06:40:58;64.07;;;34.37;;
21258;SDS011;10787;53.364;-1.480;2023-02-15T06:43:23;63.20;;;33.73;;
21258;SDS011;10787;53.364;-1.480;2023-02-15T06:45:49;61.23;;;33.50;;
21258;SDS011;10787;53.364;-1.480;2023-02-15T06:48:15;64.17;;;35.33;;
21258;SDS011;10787;53.364;-1.480;2023-02-15T06:50:40;65.90;;;36.17;;
21258;SDS011;10787;53.364;-1.480;2023-02-15T06:53:06;66.67;;;34.83;;
21258;SDS011;10787;53.364;-1.480;2023-02-15T06:55:32;63.47;;;34.87;;
21258;SDS011;10787;53.364;-1.480;2023-02-15T06:57:58;63.60;;;34.30;;
21258;SDS011;10787;53.364;-1.480;2023-02-15T07:00:23;63.73;;;33.97;;
21258;SDS011;10787;53.364;-1.480;2023-02-15T07:02:56;63.90;;;34.80;;
21258;SDS011;10787;53.364;-1.480;2023-02-15T07:05:23;63.57;;;34.60;;
21258;SDS011;10787;53.364;-1.480;2023-02-15T07:07:49;61.77;;;34.13;;
21258;SDS011;10787;53.364;-1.480;2023-02-15T07:10:15;63.40;;;34.43;;
21258;SDS011;10787;53.364;-1.480;2023-02-15T07:12:41;63.67;;;34.70;;
21258;SDS011;10787;53.364;-1.480;2023-02-15T07:15:10;63.20;;;35.17;;
21258;SDS011;10787;53.364;-1.480;2023-02-15T07:17:38;68.20;;;37.00;;
21258;SDS011;10787;53.364;-1.480;2023-02-15T07:20:05;63.20;;;35.13;;
21258;SDS011;10787;53.364;-1.480;2023-02-15T07:22:38;66.33;;;35.10;;
21258;SDS011;10787;53.364;-1.480;2023-02-15T07:25:04;70.63;;;36.30;;
21258;SDS011;10787;53.364;-1.480;2023-02-15T07:27:32;68.57;;;35.67;;
21258;SDS011;10787;53.364;-1.480;2023-02-15T07:29:58;65.93;;;35.70;;
21258;SDS011;10787;53.364;-1.480;2023-02-15T07:32:29;65.97;;;37.00;;
21258;SDS011;10787;53.364;-1.480;2023-02-15T07:34:55;68.33;;;36.70;;
21258;SDS011;10787;53.364;-1.480;2023-02-15T07:37:22;69.13;;;36.57;;
21258;SDS011;10787;53.364;-1.480;2023-02-15T07:39:47;66.43;;;36.43;;
21258;SDS011;10787;53.364;-1.480;2023-02-15T07:42:13;68.93;;;37.63;;
21258;SDS011;10787;53.364;-1.480;2023-02-15T07:44:39;68.47;;;37.67;;
21258;SDS011;10787;53.364;-1.480;2023-02-15T07:47:05;69.37;;;36.80;;
21258;SDS011;10787;53.364;-1.480;2023-02-15T07:49:31;66.87;;;36.90;;
21258;SDS011;10787;53.364;-1.480;2023-02-15T07:51:56;67.00;;;37.20;;
21258;SDS011;10787;53.364;-1.480;2023-02-15T07:54:22;69.73;;;38.47;;
21258;SDS011;10787;53.364;-1.480;2023-02-15T07:56:48;70.23;;;37.97;;
21258;SDS011;10787;53.364;-1.480;2023-02-15T07:59:14;76.77;;;40.63;;
21258;SDS011;10787;53.364;-1.480;2023-02-15T08:01:39;72.53;;;38.70;;
21258;SDS011;10787;53.364;-1.480;2023-02-15T08:04:06;74.17;;;38.27;;
21258;SDS011;10787;53.364;-1.480;2023-02-15T08:06:33;74.47;;;38.90;;
21258;SDS011;10787;53.364;-1.480;2023-02-15T08:09:00;70.50;;;38.60;;
21258;SDS011;10787;53.364;-1.480;2023-02-15T08:11:29;69.57;;;38.07;;
21258;SDS011;10787;53.364;-1.480;2023-02-15T08:14:05;70.60;;;37.67;;
21258;SDS011;10787;53.364;-1.480;2023-02-15T08:19:11;70.90;;;39.07;;
21258;SDS011;10787;53.364;-1.480;2023-02-15T08:21:56;74.50;;;38.27;;
21258;SDS011;10787;53.364;-1.480;2023-02-15T08:24:24;71.87;;;39.23;;
21258;SDS011;10787;53.364;-1.480;2023-02-15T08:26:52;69.93;;;39.13;;
21258;SDS011;10787;53.364;-1.480;2023-02-15T08:29:19;72.77;;;38.77;;
21258;SDS011;10787;53.364;-1.480;2023-02-15T08:31:47;74.43;;;39.43;;
21258;SDS011;10787;53.364;-1.480;2023-02-15T08:34:16;71.07;;;38.07;;
21258;SDS011;10787;53.364;-1.480;2023-02-15T08:36:43;70.67;;;38.67;;
21258;SDS011;10787;53.364;-1.480;2023-02-15T08:39:10;71.27;;;38.90;;
21258;SDS011;10787;53.364;-1.480;2023-02-15T08:41:37;70.57;;;38.60;;
21258;SDS011;10787;53.364;-1.480;2023-02-15T08:44:05;70.37;;;38.30;;
21258;SDS011;10787;53.364;-1.480;2023-02-15T08:46:33;71.57;;;39.10;;
21258;SDS011;10787;53.364;-1.480;2023-02-15T08:49:00;72.30;;;38.83;;
21258;SDS011;10787;53.364;-1.480;2023-02-15T08:51:28;69.50;;;38.83;;
21258;SDS011;10787;53.364;-1.480;2023-02-15T08:53:56;67.10;;;37.93;;
21258;SDS011;10787;53.364;-1.480;2023-02-15T08:56:24;68.10;;;37.27;;
21258;SDS011;10787;53.364;-1.480;2023-02-15T08:58:52;68.43;;;37.13;;
21258;SDS011;10787;53.364;-1.480;2023-02-15T09:01:19;68.67;;;37.57;;
21258;SDS011;10787;53.364;-1.480;2023-02-15T09:03:47;65.43;;;36.77;;
21258;SDS011;10787;53.364;-1.480;2023-02-15T09:06:20;65.93;;;37.17;;
21258;SDS011;10787;53.364;-1.480;2023-02-15T09:08:47;65.00;;;36.83;;
21258;SDS011;10787;53.364;-1.480;2023-02-15T09:11:17;65.10;;;37.53;;
21258;SDS011;10787;53.364;-1.480;2023-02-15T09:13:52;70.93;;;37.73;;
21258;SDS011;10787;53.364;-1.480;2023-02-15T09:16:21;64.40;;;36.80;;
21258;SDS011;10787;53.364;-1.480;2023-02-15T09:18:48;70.50;;;38.27;;
21258;SDS011;10787;53.364;-1.480;2023-02-15T09:21:16;66.33;;;35.20;;
21258;SDS011;10787;53.364;-1.480;2023-02-15T09:23:45;62.83;;;36.03;;
21258;SDS011;10787;53.364;-1.480;2023-02-15T09:26:13;62.30;;;35.83;;
21258;SDS011;10787;53.364;-1.480;2023-02-15T09:28:40;62.20;;;35.97;;
21258;SDS011;10787;53.364;-1.480;2023-02-15T09:31:07;61.40;;;35.40;;
21258;SDS011;10787;53.364;-1.480;2023-02-15T09:33:35;62.93;;;35.30;;
21258;SDS011;10787;53.364;-1.480;2023-02-15T09:36:05;61.80;;;34.93;;
21258;SDS011;10787;53.364;-1.480;2023-02-15T09:38:38;55.97;;;32.80;;
21258;SDS011;10787;53.364;-1.480;2023-02-15T09:52:14;57.43;;;33.70;;
21258;SDS011;10787;53.364;-1.480;2023-02-15T09:55:06;59.43;;;34.63;;
21258;SDS011;10787;53.364;-1.480;2023-02-15T10:00:28;62.73;;;34.50;;
21258;SDS011;10787;53.364;-1.480;2023-02-15T10:11:33;57.07;;;32.33;;
21258;SDS011;10787;53.364;-1.480;2023-02-15T10:22:02;52.97;;;32.20;;
21258;SDS011;10787;53.364;-1.480;2023-02-15T10:27:39;53.50;;;30.43;;
21258;SDS011;10787;53.364;-1.480;2023-02-15T10:30:16;51.07;;;31.03;;
21258;SDS011;10787;53.364;-1.480;2023-02-15T10:32:53;54.20;;;30.57;;
21258;SDS011;10787;53.364;-1.480;2023-02-15T10:35:40;53.90;;;31.90;;
21258;SDS011;10787;53.364;-1.480;2023-02-15T10:38:28;54.90;;;30.17;;
21258;SDS011;10787;53.364;-1.480;2023-02-15T10:49:40;53.73;;;29.93;;
21258;SDS011;10787;53.364;-1.480;2023-02-15T11:00:44;51.63;;;31.20;;
21258;SDS011;10787;53.364;-1.480;2023-02-15T11:03:25;55.07;;;31.37;;
21258;SDS011;10787;53.364;-1.480;2023-02-15T11:06:04;54.83;;;30.80;;
21258;SDS011;10787;53.364;-1.480;2023-02-15T11:08:49;52.47;;;31.07;;
21258;SDS011;10787;53.364;-1.480;2023-02-15T11:11:34;56.57;;;31.00;;
21258;SDS011;10787;53.364;-1.480;2023-02-15T11:16:55;50.33;;;29.77;;
21258;SDS011;10787;53.364;-1.480;2023-02-15T11:19:31;52.40;;;29.97;;
21258;SDS011;10787;53.364;-1.480;2023-02-15T11:22:05;46.40;;;28.03;;
21258;SDS011;10787;53.364;-1.480;2023-02-15T11:24:33;53.47;;;28.97;;
21258;SDS011;10787;53.364;-1.480;2023-02-15T11:27:21;47.70;;;28.40;;
21258;SDS011;10787;53.364;-1.480;2023-02-15T11:29:55;48.43;;;28.30;;
21258;SDS011;10787;53.364;-1.480;2023-02-15T11:43:11;44.40;;;28.00;;
21258;SDS011;10787;53.364;-1.480;2023-02-15T11:45:42;44.40;;;27.30;;
21258;SDS011;10787;53.364;-1.480;2023-02-15T11:48:10;41.57;;;27.03;;
21258;SDS011;10787;53.364;-1.480;2023-02-15T11:50:43;41.40;;;26.60;;
21258;SDS011;10787;53.364;-1.480;2023-02-15T11:53:16;39.30;;;24.93;;
21258;SDS011;10787;53.364;-1.480;2023-02-15T11:55:44;41.67;;;24.47;;
21258;SDS011;10787;53.364;-1.480;2023-02-15T11:58:23;43.40;;;26.03;;
21258;SDS011;10787;53.364;-1.480;2023-02-15T12:03:50;38.93;;;25.33;;
21258;SDS011;10787;53.364;-1.480;2023-02-15T12:09:35;38.35;;;25.65;;
21258;SDS011;10787;53.364;-1.480;2023-02-15T12:14:58;38.97;;;24.23;;
21258;SDS011;10787;53.364;-1.480;2023-02-15T12:17:32;36.25;;;23.42;;
21258;SDS011;10787;53.364;-1.480;2023-02-15T12:22:51;36.22;;;23.58;;
21258;SDS011;10787;53.364;-1.480;2023-02-15T12:25:35;37.08;;;24.35;;
21258;SDS011;10787;53.364;-1.480;2023-02-15T12:30:52;35.45;;;23.48;;
21258;SDS011;10787;53.364;-1.480;2023-02-15T12:35:55;31.95;;;21.92;;
21258;SDS011;10787;53.364;-1.480;2023-02-15T12:38:25;33.65;;;21.58;;
21258;SDS011;10787;53.364;-1.480;2023-02-15T12:40:59;33.33;;;21.77;;
21258;SDS011;10787;53.364;-1.480;2023-02-15T12:43:33;32.58;;;21.98;;
21258;SDS011;10787;53.364;-1.480;2023-02-15T12:46:33;34.67;;;21.45;;
21258;SDS011;10787;53.364;-1.480;2023-02-15T12:49:05;33.10;;;22.63;;
21258;SDS011;10787;53.364;-1.480;2023-02-15T12:51:41;33.88;;;22.17;;
21258;SDS011;10787;53.364;-1.480;2023-02-15T12:54:43;35.67;;;21.58;;
21258;SDS011;10787;53.364;-1.480;2023-02-15T12:57:30;34.78;;;19.58;;
21258;SDS011;10787;53.364;-1.480;2023-02-15T12:59:57;37.03;;;20.83;;
21258;SDS011;10787;53.364;-1.480;2023-02-15T13:04:49;33.53;;;20.58;;
21258;SDS011;10787;53.364;-1.480;2023-02-15T13:07:16;38.13;;;22.40;;
21258;SDS011;10787;53.364;-1.480;2023-02-15T13:09:42;35.40;;;22.00;;
21258;SDS011;10787;53.364;-1.480;2023-02-15T13:12:11;38.43;;;22.23;;
21258;SDS011;10787;53.364;-1.480;2023-02-15T13:14:45;39.87;;;23.20;;
21258;SDS011;10787;53.364;-1.480;2023-02-15T13:17:16;36.60;;;21.67;;
21258;SDS011;10787;53.364;-1.480;2023-02-15T13:22:33;35.57;;;21.40;;
21258;SDS011;10787;53.364;-1.480;2023-02-15T13:25:29;33.67;;;20.77;;
21258;SDS011;10787;53.364;-1.480;2023-02-15T13:28:00;35.87;;;20.13;;
21258;SDS011;10787;53.364;-1.480;2023-02-15T13:30:28;29.13;;;19.17;;
21258;SDS011;10787;53.364;-1.480;2023-02-15T13:39:11;31.35;;;19.73;;
21258;SDS011;10787;53.364;-1.480;2023-02-15T13:52:46;34.17;;;20.00;;
21258;SDS011;10787;53.364;-1.480;2023-02-15T14:11:46;31.70;;;20.55;;
21258;SDS011;10787;53.364;-1.480;2023-02-15T14:17:09;35.42;;;20.00;;
21258;SDS011;10787;53.364;-1.480;2023-02-15T14:20:06;29.98;;;19.25;;
21258;SDS011;10787;53.364;-1.480;2023-02-15T14:22:44;27.52;;;19.13;;
21258;SDS011;10787;53.364;-1.480;2023-02-15T14:25:38;31.25;;;19.40;;
21258;SDS011;10787;53.364;-1.480;2023-02-15T14:28:14;32.05;;;19.65;;
21258;SDS011;10787;53.364;-1.480;2023-02-15T14:31:02;27.95;;;18.63;;
21258;SDS011;10787;53.364;-1.480;2023-02-15T14:36:08;29.40;;;17.27;;
21258;SDS011;10787;53.364;-1.480;2023-02-15T14:41:12;32.07;;;18.17;;
21258;SDS011;10787;53.364;-1.480;2023-02-15T14:46:50;27.50;;;17.53;;
21258;SDS011;10787;53.364;-1.480;2023-02-15T14:49:29;30.50;;;18.20;;
21258;SDS011;10787;53.364;-1.480;2023-02-15T14:52:05;29.30;;;18.30;;
21258;SDS011;10787;53.364;-1.480;2023-02-15T14:59:41;29.83;;;18.27;;
21258;SDS011;10787;53.364;-1.480;2023-02-15T15:05:29;27.03;;;18.57;;
21258;SDS011;10787;53.364;-1.480;2023-02-15T15:08:00;35.83;;;19.33;;
21258;SDS011;10787;53.364;-1.480;2023-02-15T15:10:45;28.77;;;18.37;;
21258;SDS011;10787;53.364;-1.480;2023-02-15T15:15:55;32.50;;;19.13;;
21258;SDS011;10787;53.364;-1.480;2023-02-15T15:21:10;31.73;;;17.27;;
21258;SDS011;10787;53.364;-1.480;2023-02-15T15:23:56;28.27;;;17.60;;
21258;SDS011;10787;53.364;-1.480;2023-02-15T15:28:57;23.87;;;15.83;;
21258;SDS011;10787;53.364;-1.480;2023-02-15T15:31:30;28.00;;;16.67;;
21258;SDS011;10787;53.364;-1.480;2023-02-15T15:37:03;26.10;;;15.83;;
21258;SDS011;10787;53.364;-1.480;2023-02-15T15:42:48;25.33;;;16.20;;
21258;SDS011;10787;53.364;-1.480;2023-02-15T15:48:42;26.67;;;16.77;;
21258;SDS011;10787;53.364;-1.480;2023-02-15T15:51:18;26.57;;;16.20;;
21258;SDS011;10787;53.364;-1.480;2023-02-15T15:53:49;27.13;;;16.97;;
21258;SDS011;10787;53.364;-1.480;2023-02-15T15:56:19;30.00;;;16.97;;
21258;SDS011;10787;53.364;-1.480;2023-02-15T15:58:52;29.93;;;18.67;;
21258;SDS011;10787;53.364;-1.480;2023-02-15T16:01:24;27.03;;;18.23;;
21258;SDS011;10787;53.364;-1.480;2023-02-15T16:03:53;29.83;;;18.80;;
21258;SDS011;10787;53.364;-1.480;2023-02-15T16:06:38;30.73;;;18.90;;
21258;SDS011;10787;53.364;-1.480;2023-02-15T16:09:10;32.47;;;19.53;;
21258;SDS011;10787;53.364;-1.480;2023-02-15T16:11:47;30.93;;;18.80;;
21258;SDS011;10787;53.364;-1.480;2023-02-15T16:16:57;32.57;;;19.63;;
21258;SDS011;10787;53.364;-1.480;2023-02-15T16:19:35;32.60;;;20.37;;
21258;SDS011;10787;53.364;-1.480;2023-02-15T16:22:05;34.20;;;20.30;;
21258;SDS011;10787;53.364;-1.480;2023-02-15T16:32:53;35.23;;;20.30;;
21258;SDS011;10787;53.364;-1.480;2023-02-15T16:35:27;35.87;;;20.43;;
21258;SDS011;10787;53.364;-1.480;2023-02-15T16:37:53;34.37;;;20.63;;
21258;SDS011;10787;53.364;-1.480;2023-02-15T16:42:47;32.60;;;20.50;;
21258;SDS011;10787;53.364;-1.480;2023-02-15T16:45:15;33.23;;;19.47;;
21258;SDS011;10787;53.364;-1.480;2023-02-15T16:47:44;35.77;;;20.40;;
21258;SDS011;10787;53.364;-1.480;2023-02-15T16:53:16;35.07;;;20.27;;
21258;SDS011;10787;53.364;-1.480;2023-02-15T16:55:50;36.80;;;20.77;;
21258;SDS011;10787;53.364;-1.480;2023-02-15T16:58:19;36.57;;;20.83;;
21258;SDS011;10787;53.364;-1.480;2023-02-15T17:00:55;38.20;;;21.47;;
21258;SDS011;10787;53.364;-1.480;2023-02-15T17:03:23;33.07;;;21.50;;
21258;SDS011;10787;53.364;-1.480;2023-02-15T17:13:24;36.93;;;22.07;;
21258;SDS011;10787;53.364;-1.480;2023-02-15T17:18:26;35.40;;;23.00;;
21258;SDS011;10787;53.364;-1.480;2023-02-15T17:21:01;35.47;;;22.03;;
21258;SDS011;10787;53.364;-1.480;2023-02-15T17:23:46;38.83;;;22.13;;
21258;SDS011;10787;53.364;-1.480;2023-02-15T17:28:45;42.23;;;25.47;;
21258;SDS011;10787;53.364;-1.480;2023-02-15T17:31:13;44.50;;;25.00;;
21258;SDS011;10787;53.364;-1.480;2023-02-15T17:33:40;47.30;;;24.73;;
21258;SDS011;10787;53.364;-1.480;2023-02-15T17:38:39;42.37;;;24.87;;
21258;SDS011;10787;53.364;-1.480;2023-02-15T17:41:06;43.83;;;25.83;;
21258;SDS011;10787;53.364;-1.480;2023-02-15T17:43:32;42.27;;;25.57;;
21258;SDS011;10787;53.364;-1.480;2023-02-15T17:45:58;55.47;;;33.87;;
21258;SDS011;10787;53.364;-1.480;2023-02-15T17:48:29;75.23;;;43.80;;
21258;SDS011;10787;53.364;-1.480;2023-02-15T17:50:57;66.80;;;40.43;;
21258;SDS011;10787;53.364;-1.480;2023-02-15T17:53:26;66.13;;;39.83;;
21258;SDS011;10787;53.364;-1.480;2023-02-15T17:55:52;67.57;;;40.00;;
21258;SDS011;10787;53.364;-1.480;2023-02-15T17:58:19;63.20;;;37.37;;
21258;SDS011;10787;53.364;-1.480;2023-02-15T18:00:48;45.20;;;28.17;;
21258;SDS011;10787;53.364;-1.480;2023-02-15T18:06:24;56.40;;;34.33;;
21258;SDS011;10787;53.364;-1.480;2023-02-15T18:09:12;45.70;;;26.30;;